Terminal Aerodrome Forecast
Issued by NWS North Platte, NE

Home | Current Version | Previous Version | Text Only | Print | Product List | Glossary On
Versions: 1 2 3 4 5 6 7 8 9 10 11 12 13 14 15 16 17 18 19 20 21 22 23
000
FTUS43 KLBF 221810 CCA
TAFVTN
TAF COR
KVTN 221810Z 2218/2318 33017G25KT P6SM FEW200
     FM222200 35011KT P6SM SCT200
     FM230400 02010KT P6SM BKN070
     FM230800 03012KT 6SM -SN BR BKN008 OVC015
     FM231200 04014G20KT 4SM -SN BR OVC007
     FM231500 05017G25KT 1SM -SN BR OVC003=

USA.gov is the U.S. government's official web portal to all federal, state and local government web resources and services.